Time;durP1;ratioP1;P1;durP2;ratioP2;P2;SDS_P1;SDS_P2;PMS_P1;PMS_P2;Temp;Humidity;BMP_temperature;BMP_pressure;BME280_temperature;BME280_humidity;BME280_pressure;Samples;Min_cycle;Max_cycle;Signal;HPM_P1;HPM_P2
2021/10/05 00:00:37;;;;;;;7.27;4.67;;;;;;;10.12;100.00;95988.69;4962755;28;20027;-77
2021/10/05 00:03:06;;;;;;;6.93;4.80;;;;;;;10.17;100.00;95990.03;4952436;28;20065;-77
2021/10/05 00:05:33;;;;;;;7.97;5.20;;;;;;;10.23;100.00;95992.84;4936012;28;20061;-77
2021/10/05 00:07:59;;;;;;;8.33;5.00;;;;;;;10.21;100.00;95991.34;4946533;28;20050;-77
2021/10/05 00:10:28;;;;;;;8.90;6.50;;;;;;;10.24;100.00;95998.91;4952730;28;20126;-77
2021/10/05 00:12:53;;;;;;;9.53;6.60;;;;;;;10.24;100.00;95998.91;4933210;29;20035;-77
2021/10/05 00:15:19;;;;;;;10.07;6.90;;;;;;;10.29;100.00;95996.63;4950963;28;20042;-77
2021/10/05 00:17:45;;;;;;;9.60;6.90;;;;;;;10.28;100.00;96000.25;4936613;28;20073;-78
2021/10/05 00:20:17;;;;;;;10.57;7.33;;;;;;;10.27;100.00;96004.69;4961454;28;20059;-77
2021/10/05 00:22:44;;;;;;;14.07;8.93;;;;;;;10.29;100.00;96009.78;4956448;28;20042;-78
2021/10/05 00:25:12;;;;;;;13.87;10.00;;;;;;;10.29;100.00;96015.84;4974685;28;20026;-78
2021/10/05 00:27:38;;;;;;;12.67;9.50;;;;;;;10.30;100.00;96003.56;4940036;28;20031;-77
2021/10/05 00:30:05;;;;;;;11.30;8.40;;;;;;;10.28;100.00;95995.81;4957331;28;20030;-78
2021/10/05 00:32:31;;;;;;;12.20;8.83;;;;;;;10.28;100.00;95997.63;4973073;28;20043;-77
2021/10/05 00:34:57;;;;;;;11.97;8.40;;;;;;;10.33;100.00;95992.72;4955123;28;20029;-78
2021/10/05 00:37:23;;;;;;;12.83;9.77;;;;;;;10.33;100.00;95990.09;4948286;28;20166;-78
2021/10/05 00:39:52;;;;;;;13.23;9.73;;;;;;;10.29;100.00;95996.63;4939935;28;20055;-78
2021/10/05 00:42:18;;;;;;;12.77;9.60;;;;;;;10.33;100.00;95997.97;4955262;28;20069;-78
2021/10/05 00:44:43;;;;;;;14.07;10.07;;;;;;;10.30;100.00;95985.16;4954826;28;20577;-78
2021/10/05 00:47:12;;;;;;;12.50;9.23;;;;;;;10.33;100.00;95980.38;4939503;28;20378;-78
2021/10/05 00:49:40;;;;;;;12.00;8.53;;;;;;;10.28;100.00;95966.09;4938549;28;20027;-78
2021/10/05 00:52:07;;;;;;;10.17;6.80;;;;;;;10.25;100.00;95976.91;4954923;28;20046;-78
2021/10/05 00:54:36;;;;;;;10.27;6.93;;;;;;;10.19;100.00;95980.97;4955288;28;20035;-78
2021/10/05 00:57:04;;;;;;;8.00;5.97;;;;;;;10.12;100.00;95970.31;4954621;28;20492;-78
2021/10/05 00:59:31;;;;;;;8.47;5.30;;;;;;;10.00;100.00;95961.13;4937212;28;20081;-78
2021/10/05 01:01:57;;;;;;;7.77;5.70;;;;;;;10.04;100.00;95961.59;4954238;28;20105;-78
2021/10/05 01:04:23;;;;;;;8.47;6.07;;;;;;;10.06;100.00;95957.00;4946069;28;20027;-78
2021/10/05 01:07:00;;;;;;;7.90;5.93;;;;;;;10.03;100.00;95945.03;4938378;28;20029;-78
2021/10/05 01:09:26;;;;;;;9.03;6.80;;;;;;;10.05;100.00;95937.78;4954933;28;20035;-78
2021/10/05 01:12:00;;;;;;;10.13;7.00;;;;;;;10.05;100.00;95937.78;4947153;28;20014;-78
2021/10/05 01:14:26;;;;;;;7.90;5.90;;;;;;;10.01;100.00;95941.72;4948283;28;20501;-78
2021/10/05 01:16:55;;;;;;;8.60;6.30;;;;;;;10.01;100.00;95933.84;4971702;28;20035;-77
2021/10/05 01:19:22;;;;;;;9.23;6.70;;;;;;;9.98;100.00;95922.84;4952543;28;20070;-77
2021/10/05 01:21:48;;;;;;;12.20;7.07;;;;;;;9.90;100.00;95921.84;4954584;28;20027;-78
2021/10/05 01:24:18;;;;;;;9.60;6.80;;;;;;;9.98;100.00;95914.97;4957231;28;20081;-78
2021/10/05 01:26:44;;;;;;;9.93;6.97;;;;;;;9.85;100.00;95911.00;4953532;28;20034;-78
2021/10/05 01:29:17;;;;;;;11.33;7.30;;;;;;;9.88;100.00;95904.63;4954486;28;20039;-78
2021/10/05 01:31:48;;;;;;;10.68;8.13;;;;;;;9.90;100.00;95902.66;4953846;28;20393;-78
2021/10/05 01:34:14;;;;;;;9.13;6.43;;;;;;;9.94;100.00;95903.16;4937658;28;20134;-78
2021/10/05 01:36:40;;;;;;;9.47;6.57;;;;;;;9.97;100.00;95895.75;4954479;28;20026;-77
2021/10/05 01:39:28;;;;;;;12.17;7.17;;;;;;;9.98;100.00;95888.69;4938552;28;20408;-77
2021/10/05 01:41:58;;;;;;;9.57;6.77;;;;;;;9.89;100.00;95885.25;4948301;28;20035;-78
2021/10/05 01:44:23;;;;;;;10.63;8.37;;;;;;;9.90;100.00;95884.28;4953937;28;20034;-77
2021/10/05 01:46:50;;;;;;;11.90;8.53;;;;;;;10.02;100.00;95884.75;4953479;28;20027;-77
2021/10/05 01:49:18;;;;;;;12.00;9.33;;;;;;;10.03;100.00;95881.97;4954228;28;20026;-77
2021/10/05 01:51:45;;;;;;;11.40;8.40;;;;;;;10.04;100.00;95870.47;4963257;28;20027;-77
2021/10/05 01:54:12;;;;;;;13.97;10.17;;;;;;;9.91;100.00;95872.78;4954210;28;20140;-77
2021/10/05 01:56:39;;;;;;;13.70;8.97;;;;;;;9.98;100.00;95873.75;4940705;28;20109;-77
2021/10/05 01:59:04;;;;;;;13.07;9.87;;;;;;;9.96;100.00;95867.88;4953561;28;20122;-77
2021/10/05 02:01:31;;;;;;;14.00;9.60;;;;;;;9.98;100.00;95852.75;4971050;28;20039;-77
2021/10/05 02:04:10;;;;;;;13.33;9.70;;;;;;;9.99;100.00;95841.25;4964612;28;20112;-78
2021/10/05 02:06:41;;;;;;;14.30;10.77;;;;;;;9.99;100.00;95838.59;4951540;28;20068;-78
2021/10/05 02:09:09;;;;;;;14.07;9.37;;;;;;;10.01;100.00;95823.50;4955398;28;20511;-78
2021/10/05 02:11:35;;;;;;;14.37;9.80;;;;;;;10.08;100.00;95829.75;4972759;28;20110;-78
2021/10/05 02:14:02;;;;;;;13.80;9.07;;;;;;;10.06;100.00;95826.47;4940125;29;20232;-78
2021/10/05 02:16:29;;;;;;;16.13;10.43;;;;;;;10.10;100.00;95824.34;4937919;28;20029;-78
2021/10/05 02:19:04;;;;;;;13.53;9.57;;;;;;;10.07;100.00;95822.03;4956138;28;20109;-77
2021/10/05 02:21:30;;;;;;;15.27;10.13;;;;;;;10.11;100.00;95828.59;4972300;28;20038;-78
2021/10/05 02:26:40;;;;;;;14.30;10.17;;;;;;;10.10;100.00;95819.09;4972020;28;20041;-78
2021/10/05 02:29:07;;;;;;;14.17;10.07;;;;;;;10.09;100.00;95828.78;4973487;28;20143;-77
2021/10/05 02:31:32;;;;;;;13.47;10.00;;;;;;;10.12;100.00;95828.41;4939305;28;20035;-78
2021/10/05 02:33:58;;;;;;;15.07;10.20;;;;;;;10.14;100.00;95817.75;4955721;28;20026;-78
2021/10/05 02:36:25;;;;;;;14.90;10.40;;;;;;;10.10;100.00;95814.66;4954275;28;20042;-78
2021/10/05 02:38:50;;;;;;;11.73;7.63;;;;;;;10.09;100.00;95814.78;4939604;28;20076;-78
2021/10/05 02:41:17;;;;;;;12.67;8.33;;;;;;;10.10;100.00;95814.66;4955733;28;20026;-79
2021/10/05 02:43:43;;;;;;;13.10;8.57;;;;;;;10.08;100.00;95811.34;4953545;28;20146;-78
2021/10/05 02:46:12;;;;;;;12.27;9.10;;;;;;;10.01;100.00;95805.13;4954944;28;20102;-78
2021/10/05 02:48:38;;;;;;;13.13;8.87;;;;;;;10.01;100.00;95794.63;4955042;28;20026;-78
2021/10/05 02:51:04;;;;;;;11.87;8.50;;;;;;;10.04;100.00;95791.66;4973275;28;20859;-77
2021/10/05 02:53:29;;;;;;;11.70;8.50;;;;;;;10.04;100.00;95789.03;4938960;28;20511;-78
2021/10/05 02:55:55;;;;;;;12.83;8.57;;;;;;;10.01;100.00;95788.56;4971444;28;20050;-78
2021/10/05 02:58:21;;;;;;;12.50;9.67;;;;;;;10.02;100.00;95784.94;4972217;28;20033;-78
2021/10/05 03:00:46;;;;;;;12.70;9.57;;;;;;;9.95;100.00;95786.59;4972844;28;20031;-78
2021/10/05 03:03:12;;;;;;;14.33;10.23;;;;;;;9.99;100.00;95795.75;4953511;28;20417;-77
2021/10/05 03:05:38;;;;;;;15.20;9.87;;;;;;;9.88;100.00;95789.88;4948162;28;20034;-78
2021/10/05 03:08:05;;;;;;;15.30;10.57;;;;;;;9.87;100.00;95787.41;4935468;28;20061;-78
2021/10/05 03:10:32;;;;;;;16.13;11.70;;;;;;;9.81;100.00;95785.44;4950758;28;20105;-78
2021/10/05 03:12:57;;;;;;;13.50;10.50;;;;;;;9.89;100.00;95785.44;4929044;28;20031;-77
2021/10/05 03:15:23;;;;;;;14.67;10.10;;;;;;;9.87;100.00;95787.41;4932997;28;20039;-77
2021/10/05 03:17:49;;;;;;;14.67;10.07;;;;;;;9.96;100.00;95782.97;4950283;28;20141;-78
2021/10/05 03:20:15;;;;;;;13.87;10.40;;;;;;;9.78;100.00;95791.84;4949812;28;20035;-77
2021/10/05 03:22:40;;;;;;;15.73;11.97;;;;;;;9.77;100.00;95792.03;4968197;28;20037;-77
2021/10/05 03:25:06;;;;;;;16.73;12.00;;;;;;;9.83;100.00;95797.44;4951204;28;20531;-78
2021/10/05 03:27:35;;;;;;;16.60;12.53;;;;;;;9.78;100.00;95799.72;4950416;28;20080;-78
2021/10/05 03:30:04;;;;;;;17.00;12.23;;;;;;;9.82;100.00;95801.03;4952304;28;20038;-77
2021/10/05 03:32:30;;;;;;;17.50;12.40;;;;;;;9.77;100.00;95803.34;4952105;28;20050;-77
2021/10/05 03:35:05;;;;;;;16.57;11.77;;;;;;;9.81;100.00;95798.56;4951637;28;20038;-77
2021/10/05 03:37:31;;;;;;;17.33;12.07;;;;;;;9.86;100.00;95801.53;4951906;28;20610;-78
2021/10/05 03:39:56;;;;;;;15.73;12.20;;;;;;;9.80;100.00;95802.19;4952533;28;20058;-77
2021/10/05 03:42:22;;;;;;;16.47;13.07;;;;;;;9.88;100.00;95802.19;4936041;28;20408;-77
2021/10/05 03:44:48;;;;;;;17.57;12.50;;;;;;;9.87;100.00;95798.75;4937606;28;20125;-78
2021/10/05 03:47:13;;;;;;;15.90;11.57;;;;;;;9.85;100.00;95795.44;4936992;28;20038;-78
2021/10/05 03:49:39;;;;;;;16.67;12.97;;;;;;;9.92;100.00;95795.59;4936784;28;20034;-77
2021/10/05 03:52:05;;;;;;;17.90;12.43;;;;;;;9.83;100.00;95801.88;4954931;28;20035;-77
2021/10/05 03:54:31;;;;;;;17.30;13.17;;;;;;;9.87;100.00;95798.75;4940944;28;20027;-77
2021/10/05 03:56:57;;;;;;;18.37;12.90;;;;;;;9.91;100.00;95796.59;4955597;28;20859;-77
2021/10/05 03:59:37;;;;;;;18.20;13.57;;;;;;;9.96;100.00;95788.22;4973356;28;20117;-78
2021/10/05 04:02:03;;;;;;;21.30;14.37;;;;;;;9.94;100.00;95780.50;4956449;28;20046;-78
2021/10/05 04:04:36;;;;;;;18.80;13.60;;;;;;;9.91;100.00;95780.84;4943151;28;20832;-77
2021/10/05 04:07:02;;;;;;;18.42;12.70;;;;;;;9.94;100.00;95777.88;4955987;28;20509;-77
2021/10/05 04:09:28;;;;;;;18.53;13.37;;;;;;;9.91;100.00;95775.59;4940829;28;20145;-78
2021/10/05 04:11:54;;;;;;;17.67;12.77;;;;;;;9.94;100.00;95772.63;4978426;28;20586;-78
2021/10/05 04:14:20;;;;;;;16.63;12.43;;;;;;;9.86;100.00;95760.34;4956214;28;20061;-76
2021/10/05 04:16:45;;;;;;;20.77;12.93;;;;;;;9.90;100.00;95766.91;4973200;28;20413;-77
2021/10/05 04:19:11;;;;;;;17.37;12.20;;;;;;;9.93;100.00;95770.19;4954176;28;20110;-81
2021/10/05 04:21:37;;;;;;;17.03;12.57;;;;;;;9.94;100.00;95777.06;4973471;28;20027;-82
2021/10/05 04:24:02;;;;;;;18.67;13.63;;;;;;;9.84;100.00;95779.88;4956243;28;20023;-81
2021/10/05 04:26:28;;;;;;;19.33;14.03;;;;;;;9.81;100.00;95777.56;4955029;28;20690;-81
2021/10/05 04:28:54;;;;;;;18.17;13.57;;;;;;;9.84;100.00;95775.44;4956387;28;20031;-81
2021/10/05 04:31:20;;;;;;;22.00;16.27;;;;;;;9.78;100.00;95765.59;4973805;28;20030;-81
2021/10/05 04:33:46;;;;;;;21.77;14.03;;;;;;;9.81;100.00;95767.06;4939924;28;20069;-81
2021/10/05 04:36:11;;;;;;;19.90;13.40;;;;;;;9.74;100.00;95768.72;4955891;28;20074;-81
2021/10/05 04:38:43;;;;;;;21.07;13.80;;;;;;;9.76;100.00;95758.84;4955929;28;20100;-81
2021/10/05 04:41:09;;;;;;;19.13;13.97;;;;;;;9.83;100.00;95759.84;4954577;28;20105;-81
2021/10/05 04:43:36;;;;;;;18.50;13.33;;;;;;;9.71;100.00;95750.66;4972717;28;20497;-81
2021/10/05 04:46:02;;;;;;;19.27;13.00;;;;;;;9.68;100.00;95757.88;4968977;28;20035;-82
2021/10/05 04:48:28;;;;;;;19.83;14.57;;;;;;;9.72;100.00;95747.84;4955389;28;20022;-81
2021/10/05 04:50:54;;;;;;;22.00;15.97;;;;;;;9.70;100.00;95755.09;4937285;28;20042;-81
2021/10/05 04:53:22;;;;;;;21.57;14.07;;;;;;;9.73;100.00;95754.78;4947023;28;20030;-81
2021/10/05 04:55:48;;;;;;;21.87;15.00;;;;;;;9.64;100.00;95755.75;4954445;28;20058;-81
2021/10/05 04:58:15;;;;;;;23.80;14.93;;;;;;;9.65;100.00;95752.13;4972498;28;20173;-81
2021/10/05 05:00:41;;;;;;;21.20;14.43;;;;;;;9.70;100.00;95744.59;4954477;28;20053;-81
2021/10/05 05:03:06;;;;;;;20.30;15.37;;;;;;;9.69;100.00;95753.44;4943290;28;20697;-81
2021/10/05 05:05:32;;;;;;;20.63;14.73;;;;;;;9.70;100.00;95749.03;4952557;28;20042;-81
2021/10/05 05:08:02;;;;;;;23.47;16.37;;;;;;;9.68;100.00;95755.25;4951053;28;20034;-81
2021/10/05 05:10:29;;;;;;;25.67;16.73;;;;;;;9.69;100.00;95756.06;4949365;29;20066;-81
2021/10/05 05:12:57;;;;;;;20.97;14.10;;;;;;;9.68;100.00;95754.44;4954850;28;20469;-81
2021/10/05 05:15:23;;;;;;;21.23;14.37;;;;;;;9.73;100.00;95749.53;4943562;28;20035;-81
2021/10/05 05:17:48;;;;;;;22.33;14.33;;;;;;;9.74;100.00;95750.34;4939002;29;20030;-81
2021/10/05 05:20:15;;;;;;;23.17;15.43;;;;;;;9.72;100.00;95728.66;4946874;28;20077;-82
2021/10/05 05:22:42;;;;;;;21.47;14.37;;;;;;;9.79;100.00;95730.47;4950276;28;20105;-81
2021/10/05 05:25:09;;;;;;;22.10;14.97;;;;;;;9.75;100.00;95723.91;4938014;28;20045;-81
2021/10/05 05:27:35;;;;;;;21.00;14.53;;;;;;;9.79;100.00;95717.34;4952750;28;20026;-81
2021/10/05 05:30:00;;;;;;;24.73;14.60;;;;;;;9.75;100.00;95728.34;4937958;28;20553;-81
2021/10/05 05:32:26;;;;;;;22.47;15.13;;;;;;;9.74;100.00;95724.91;4949978;29;20033;-81
2021/10/05 05:34:52;;;;;;;29.73;19.43;;;;;;;9.76;100.00;95716.84;4958660;28;20102;-81
2021/10/05 05:37:18;;;;;;;22.00;15.10;;;;;;;9.78;100.00;95715.69;4953408;28;20034;-81
2021/10/05 05:39:43;;;;;;;24.13;16.00;;;;;;;9.77;100.00;95723.75;4952416;28;20045;-81
2021/10/05 05:42:11;;;;;;;20.10;14.47;;;;;;;9.76;100.00;95732.59;4950395;28;20041;-81
2021/10/05 05:44:38;;;;;;;19.43;13.27;;;;;;;9.79;100.00;95732.25;4953758;28;20034;-81
2021/10/05 05:47:04;;;;;;;19.83;14.07;;;;;;;9.81;100.00;95735.56;4938886;28;20030;-81
2021/10/05 05:49:30;;;;;;;19.13;13.43;;;;;;;9.79;100.00;95721.75;4937457;28;20097;-81
2021/10/05 05:51:56;;;;;;;22.53;14.73;;;;;;;9.83;100.00;95723.09;4954730;28;20030;-81
2021/10/05 05:54:22;;;;;;;23.73;14.10;;;;;;;9.86;100.00;95726.19;4954526;28;20038;-81
2021/10/05 05:56:48;;;;;;;19.60;13.60;;;;;;;9.84;100.00;95720.28;4937074;28;20445;-81
2021/10/05 05:59:15;;;;;;;18.30;13.10;;;;;;;9.79;100.00;95727.00;4953784;28;20489;-82
2021/10/05 06:01:41;;;;;;;19.57;12.63;;;;;;;9.76;100.00;95724.72;4944116;28;20163;-82
2021/10/05 06:04:07;;;;;;;18.43;12.07;;;;;;;9.85;100.00;95731.59;4953879;28;20107;-81
2021/10/05 06:06:33;;;;;;;17.70;11.70;;;;;;;9.84;100.00;95724.72;4970876;28;20536;-82
2021/10/05 06:09:00;;;;;;;18.30;10.87;;;;;;;9.87;100.00;95727.00;4952859;28;20067;-82
2021/10/05 06:11:36;;;;;;;18.57;11.13;;;;;;;9.84;100.00;95719.47;4934958;29;20041;-82
2021/10/05 06:14:02;;;;;;;17.10;11.47;;;;;;;9.89;100.00;95725.88;4935386;29;20035;-82
2021/10/05 06:16:27;;;;;;;17.07;10.97;;;;;;;9.93;100.00;95730.78;4951207;28;20405;-82
2021/10/05 06:18:53;;;;;;;19.13;11.93;;;;;;;9.96;100.00;95728.66;4969620;28;20026;-82
2021/10/05 06:21:19;;;;;;;15.97;10.47;;;;;;;9.90;100.00;95726.69;4937380;28;20456;-82
2021/10/05 06:23:45;;;;;;;17.03;11.37;;;;;;;9.88;100.00;95723.41;4937832;28;20500;-82
2021/10/05 06:26:11;;;;;;;16.83;10.80;;;;;;;9.93;100.00;95722.91;4953338;28;20065;-82
2021/10/05 06:28:37;;;;;;;15.70;10.63;;;;;;;9.89;100.00;95727.66;4937953;28;20559;-83
2021/10/05 06:31:03;;;;;;;15.50;10.40;;;;;;;9.82;100.00;95730.13;4934279;29;20023;-82
2021/10/05 06:33:29;;;;;;;16.73;10.47;;;;;;;9.87;100.00;95724.38;4931651;28;20536;-82
2021/10/05 06:35:55;;;;;;;16.80;11.67;;;;;;;9.85;100.00;95721.09;4944318;29;20653;-83
2021/10/05 06:38:21;;;;;;;16.20;10.97;;;;;;;9.90;100.00;95729.31;4946034;28;20035;-83
2021/10/05 06:40:47;;;;;;;15.40;11.30;;;;;;;9.92;100.00;95716.81;4952075;28;20038;-83
2021/10/05 06:43:13;;;;;;;17.07;11.57;;;;;;;9.91;100.00;95717.81;4932498;29;20042;-82
2021/10/05 06:45:39;;;;;;;16.03;11.17;;;;;;;9.94;100.00;95721.91;4948664;28;20023;-82
2021/10/05 06:48:06;;;;;;;14.03;9.53;;;;;;;9.83;100.00;95725.72;4964355;28;20038;-82
2021/10/05 06:50:34;;;;;;;17.53;12.03;;;;;;;9.82;100.00;95721.44;4953593;28;20034;-83
2021/10/05 06:53:01;;;;;;;17.50;11.70;;;;;;;9.89;100.00;95712.75;4952992;28;20113;-83
2021/10/05 06:55:31;;;;;;;18.20;12.17;;;;;;;10.01;100.00;95710.56;4952144;28;20026;-82
2021/10/05 06:57:58;;;;;;;15.93;10.90;;;;;;;9.99;100.00;95707.25;4970769;28;20105;-82
2021/10/05 07:00:24;;;;;;;16.80;10.70;;;;;;;10.06;100.00;95703.00;4953213;28;20031;-82
2021/10/05 07:02:51;;;;;;;17.40;11.57;;;;;;;10.10;100.00;95700.84;4953442;28;20509;-82
2021/10/05 07:05:20;;;;;;;16.97;11.80;;;;;;;10.11;100.00;95705.13;4943521;28;20054;-82
2021/10/05 07:07:48;;;;;;;15.40;10.57;;;;;;;10.17;100.00;95714.13;4937377;28;20043;-82
2021/10/05 07:10:16;;;;;;;15.27;11.00;;;;;;;10.14;100.00;95723.97;4949265;29;20069;-82
2021/10/05 07:12:43;;;;;;;15.93;10.30;;;;;;;10.12;100.00;95717.25;4959005;28;20453;-82
2021/10/05 07:15:10;;;;;;;12.73;8.90;;;;;;;10.15;100.00;95725.63;4940491;28;20034;-82
2021/10/05 07:17:35;;;;;;;15.17;10.13;;;;;;;10.19;100.00;95712.94;4959017;28;20088;-83
2021/10/05 07:20:05;;;;;;;14.10;9.47;;;;;;;10.22;100.00;95719.69;4955608;28;20106;-82
2021/10/05 07:22:31;;;;;;;16.37;11.17;;;;;;;10.30;100.00;95728.41;4955170;28;20054;-82
2021/10/05 07:24:57;;;;;;;15.93;9.73;;;;;;;10.46;100.00;95711.75;4953615;28;20019;-82
2021/10/05 07:27:23;;;;;;;13.87;9.70;;;;;;;10.62;100.00;95697.69;4953456;28;20030;-82
2021/10/05 07:29:52;;;;;;;15.53;9.73;;;;;;;10.82;100.00;95700.72;4950710;28;20043;-83
2021/10/05 07:32:18;;;;;;;15.27;9.23;;;;;;;10.90;100.00;95707.72;4957110;28;20035;-78
2021/10/05 07:34:44;;;;;;;12.30;8.63;;;;;;;10.83;100.00;95712.84;4956603;28;20030;-78
2021/10/05 07:37:11;;;;;;;11.20;7.73;;;;;;;10.68;100.00;95714.59;4956759;28;20039;-78
2021/10/05 07:39:38;;;;;;;10.73;6.70;;;;;;;10.66;100.00;95714.75;4955472;28;20053;-78
2021/10/05 07:42:04;;;;;;;8.57;5.77;;;;;;;10.71;100.00;95717.72;4939643;28;20043;-79
2021/10/05 07:44:30;;;;;;;9.53;6.37;;;;;;;10.84;100.00;95722.41;4972378;28;20042;-78
2021/10/05 07:46:58;;;;;;;10.57;7.53;;;;;;;11.03;100.00;95726.38;4938532;28;20039;-78
2021/10/05 07:49:25;;;;;;;9.37;6.10;;;;;;;11.10;100.00;95727.34;4948831;28;20114;-78
2021/10/05 07:51:52;;;;;;;10.00;6.70;;;;;;;11.09;100.00;95723.88;4940395;28;20042;-78
2021/10/05 07:54:18;;;;;;;8.87;5.63;;;;;;;11.12;100.00;95712.19;4971111;28;20023;-78
2021/10/05 07:56:44;;;;;;;8.57;6.40;;;;;;;11.29;100.00;95710.25;4953682;28;20027;-78
2021/10/05 07:59:09;;;;;;;8.30;5.53;;;;;;;11.27;100.00;95715.72;4956266;28;20085;-77
2021/10/05 08:01:37;;;;;;;7.37;4.57;;;;;;;11.34;100.00;95710.56;4956124;28;20033;-78
2021/10/05 08:04:04;;;;;;;9.10;4.83;;;;;;;11.45;100.00;95714.59;4950192;28;20125;-78
2021/10/05 08:06:31;;;;;;;7.23;5.07;;;;;;;11.36;100.00;95719.06;4954970;28;20540;-78
2021/10/05 08:09:14;;;;;;;7.47;4.90;;;;;;;11.49;100.00;95711.41;4955352;28;20022;-78
2021/10/05 08:11:41;;;;;;;7.45;4.90;;;;;;;11.43;100.00;95716.56;4956428;28;20035;-78
2021/10/05 08:14:08;;;;;;;7.93;5.30;;;;;;;11.53;100.00;95717.94;4939960;28;20027;-78
2021/10/05 08:16:34;;;;;;;8.70;5.27;;;;;;;11.51;100.00;95711.25;4939075;28;20051;-77
2021/10/05 08:19:00;;;;;;;8.60;6.10;;;;;;;11.62;100.00;95707.34;4936374;29;20033;-78
2021/10/05 08:21:27;;;;;;;8.53;5.80;;;;;;;11.70;100.00;95702.00;4970722;28;20445;-77
2021/10/05 08:23:53;;;;;;;6.93;4.60;;;;;;;11.85;100.00;95708.16;4939709;28;20066;-78
2021/10/05 08:26:20;;;;;;;7.93;4.77;;;;;;;11.96;100.00;95691.06;4939311;28;20042;-77
2021/10/05 08:29:01;;;;;;;5.30;3.57;;;;;;;11.94;100.00;95686.00;4939094;28;20034;-78
2021/10/05 08:31:26;;;;;;;5.43;3.53;;;;;;;11.85;100.00;95684.44;4955486;28;20042;-79
2021/10/05 08:33:52;;;;;;;5.97;3.70;;;;;;;12.06;100.00;95686.34;4938833;28;20026;-79
2021/10/05 08:36:18;;;;;;;7.00;3.83;;;;;;;11.91;100.00;95693.44;4938780;28;20063;-79
2021/10/05 08:38:46;;;;;;;4.87;2.97;;;;;;;11.70;100.00;95697.56;4955457;28;20055;-79
2021/10/05 08:41:12;;;;;;;4.77;2.90;;;;;;;11.67;100.00;95694.47;4939247;28;20036;-79
2021/10/05 08:43:38;;;;;;;4.20;2.67;;;;;;;11.73;100.00;95691.94;4937055;28;20023;-80
2021/10/05 08:46:05;;;;;;;4.17;2.83;;;;;;;11.52;100.00;95694.44;4939686;28;20090;-79
2021/10/05 08:48:37;;;;;;;5.00;3.10;;;;;;;11.61;100.00;95687.28;4953023;28;20030;-79
2021/10/05 08:51:04;;;;;;;5.07;3.40;;;;;;;11.57;100.00;95686.84;4980481;28;20026;-79
2021/10/05 08:53:33;;;;;;;6.57;4.20;;;;;;;11.70;100.00;95694.94;4938845;28;20027;-79
2021/10/05 08:55:58;;;;;;;6.37;4.43;;;;;;;11.82;100.00;95691.84;4953569;28;20058;-79
2021/10/05 08:58:24;;;;;;;10.03;5.23;;;;;;;11.96;100.00;95686.63;4940776;28;20054;-79
2021/10/05 09:00:54;;;;;;;7.87;4.73;;;;;;;12.09;100.00;95688.63;4938612;28;20071;-79
2021/10/05 09:03:24;;;;;;;6.77;4.83;;;;;;;12.31;100.00;95684.28;4937167;28;20045;-79
2021/10/05 09:05:51;;;;;;;7.30;4.80;;;;;;;12.34;100.00;95693.59;4954717;28;20038;-79
2021/10/05 09:08:27;;;;;;;7.17;4.50;;;;;;;12.49;100.00;95707.63;4954101;28;20022;-80
2021/10/05 09:11:01;;;;;;;5.37;3.77;;;;;;;12.45;100.00;95701.06;4938927;28;20030;-79
2021/10/05 09:13:35;;;;;;;5.77;3.53;;;;;;;12.48;100.00;95703.34;4954604;28;20035;-79
2021/10/05 09:16:01;;;;;;;6.93;3.50;;;;;;;12.32;100.00;95695.63;4937779;28;20118;-80
2021/10/05 09:18:27;;;;;;;5.93;3.87;;;;;;;12.11;100.00;95709.56;4937428;28;20465;-79
2021/10/05 09:20:52;;;;;;;6.23;4.27;;;;;;;12.02;100.00;95714.88;4954522;28;20035;-79
2021/10/05 09:23:18;;;;;;;6.73;4.30;;;;;;;12.02;100.00;95706.97;4972318;28;20027;-79
2021/10/05 09:25:50;;;;;;;6.60;4.70;;;;;;;12.17;100.00;95708.78;4937591;28;20070;-79
2021/10/05 09:28:18;;;;;;;7.07;4.80;;;;;;;12.40;100.00;95709.50;4953967;28;20042;-79
2021/10/05 09:31:02;;;;;;;6.47;3.90;;;;;;;12.45;100.00;95707.16;4972195;28;20106;-79
2021/10/05 09:33:29;;;;;;;7.43;4.40;;;;;;;12.40;100.00;95703.44;4952264;28;20034;-79
2021/10/05 09:35:55;;;;;;;6.93;4.40;;;;;;;12.43;100.00;95703.06;4935169;29;20028;-79
2021/10/05 09:38:25;;;;;;;5.80;3.80;;;;;;;12.55;100.00;95706.06;4952602;29;20031;-79
2021/10/05 09:41:10;;;;;;;5.73;3.93;;;;;;;12.46;100.00;95695.59;4924200;28;20731;-79
2021/10/05 09:43:36;;;;;;;5.20;3.43;;;;;;;12.58;100.00;95705.69;4953317;28;20050;-79
2021/10/05 09:46:18;;;;;;;8.03;4.40;;;;;;;12.30;100.00;95708.16;4936874;28;20035;-79
2021/10/05 09:48:45;;;;;;;6.33;4.33;;;;;;;12.27;100.00;95719.88;4948854;28;20234;-79
2021/10/05 09:51:29;;;;;;;5.90;4.10;;;;;;;12.17;100.00;95721.97;4938431;28;20061;-79
2021/10/05 09:53:57;;;;;;;6.37;3.97;;;;;;;12.18;100.00;95728.91;4935363;28;20453;-79
2021/10/05 09:56:25;;;;;;;7.17;4.60;;;;;;;12.07;100.00;95730.16;4936230;28;20061;-79
2021/10/05 09:58:52;;;;;;;9.80;5.57;;;;;;;12.09;100.00;95727.34;4953730;28;20390;-78
2021/10/05 10:01:23;;;;;;;8.00;5.27;;;;;;;12.04;100.00;95735.81;4936308;28;20037;-79
2021/10/05 10:03:51;;;;;;;8.73;5.27;;;;;;;12.17;100.00;95721.97;4937365;28;20062;-78
2021/10/05 10:06:18;;;;;;;9.37;6.30;;;;;;;12.22;100.00;95717.00;4942799;28;20023;-79
2021/10/05 10:08:56;;;;;;;10.00;5.47;;;;;;;12.25;100.00;95721.91;4953533;28;20497;-78
2021/10/05 10:11:23;;;;;;;7.87;5.37;;;;;;;12.35;100.00;95721.63;4967200;28;20469;-78
2021/10/05 10:13:51;;;;;;;7.67;5.23;;;;;;;12.33;100.00;95727.06;4935576;28;20038;-78
2021/10/05 10:16:18;;;;;;;8.00;5.87;;;;;;;12.33;100.00;95727.06;4945064;28;20035;-78
2021/10/05 10:18:58;;;;;;;7.63;5.20;;;;;;;12.56;100.00;95731.44;4953544;28;20030;-78
2021/10/05 10:21:33;;;;;;;7.03;4.53;;;;;;;12.51;100.00;95732.00;4953990;28;20077;-78
2021/10/05 10:24:15;;;;;;;7.30;4.90;;;;;;;12.32;100.00;95733.34;4954204;28;20420;-78
2021/10/05 10:26:47;;;;;;;7.90;4.97;;;;;;;12.43;100.00;95726.81;4953442;28;20085;-78
2021/10/05 10:29:25;;;;;;;7.97;5.38;;;;;;;12.53;100.00;95729.16;4945234;28;20653;-78
2021/10/05 10:31:55;;;;;;;9.17;5.27;;;;;;;12.56;100.00;95724.34;4937748;28;20043;-78
2021/10/05 10:34:23;;;;;;;9.33;5.90;;;;;;;12.43;100.00;95726.81;4953225;28;20070;-78
2021/10/05 10:36:50;;;;;;;7.50;5.33;;;;;;;12.56;100.00;95719.06;4953757;28;20113;-78
2021/10/05 10:39:21;;;;;;;7.97;5.50;;;;;;;12.62;100.00;95718.31;4953474;28;20043;-78
2021/10/05 10:41:53;;;;;;;9.87;6.17;;;;;;;12.62;100.00;95722.78;4953402;28;20030;-77
2021/10/05 10:44:27;;;;;;;7.53;5.30;;;;;;;12.47;100.00;95726.28;4966743;28;20038;-78
2021/10/05 10:47:08;;;;;;;7.13;4.67;;;;;;;12.72;100.00;95718.03;4930003;29;20066;-78
2021/10/05 10:49:34;;;;;;;11.10;6.10;;;;;;;12.89;100.00;95714.16;4952968;28;20049;-78
2021/10/05 10:52:03;;;;;;;8.03;5.93;;;;;;;13.33;100.00;95712.41;4955127;28;20091;-78
2021/10/05 10:54:29;;;;;;;9.13;6.70;;;;;;;14.05;99.78;95696.31;4955497;28;20038;-77
2021/10/05 10:57:04;;;;;;;10.03;6.97;;;;;;;14.28;95.09;95687.28;4953618;28;20038;-77
2021/10/05 10:59:31;;;;;;;8.57;5.88;;;;;;;14.59;95.68;95679.75;4970016;28;20031;-78
2021/10/05 11:02:06;;;;;;;9.13;6.97;;;;;;;13.98;95.64;95676.13;4948439;28;20015;-78
2021/10/05 11:04:34;;;;;;;8.73;7.10;;;;;;;13.81;96.17;95679.06;4968719;28;20050;-78
2021/10/05 11:07:01;;;;;;;8.00;6.80;;;;;;;13.90;97.63;95677.91;4970690;28;20027;-78
2021/10/05 11:09:33;;;;;;;8.32;6.10;;;;;;;13.84;98.27;95664.66;4952222;28;20043;-78
2021/10/05 11:12:00;;;;;;;7.70;6.05;;;;;;;13.84;97.85;95662.81;4936878;28;20122;-78
2021/10/05 11:14:27;;;;;;;8.52;5.65;;;;;;;13.96;94.58;95646.44;4953005;28;20038;-78
2021/10/05 11:17:01;;;;;;;7.10;5.78;;;;;;;14.28;93.38;95639.66;4951680;28;20039;-78
2021/10/05 11:19:33;;;;;;;6.70;5.28;;;;;;;14.27;93.76;95644.16;4962945;28;20026;-78
2021/10/05 11:22:00;;;;;;;7.65;6.03;;;;;;;14.27;95.31;95656.56;4970758;28;20038;-78
2021/10/05 11:24:48;;;;;;;7.75;6.05;;;;;;;14.38;93.64;95651.53;4952315;28;20039;-78
2021/10/05 11:27:22;;;;;;;7.03;5.88;;;;;;;14.34;93.45;95650.28;4936144;28;20035;-78